sensor_id;sensor_type;location;lat;lon;timestamp;P1;durP1;ratioP1;P2;durP2;ratioP2
60869;SDS011;46710;43.680;4.132;2022-08-18T00:02:20;12.37;;;11.05;;
60869;SDS011;46710;43.680;4.132;2022-08-18T00:04:48;15.93;;;12.45;;
60869;SDS011;46710;43.680;4.132;2022-08-18T00:07:17;14.20;;;11.30;;
60869;SDS011;46710;43.680;4.132;2022-08-18T00:09:44;13.43;;;11.30;;
60869;SDS011;46710;43.680;4.132;2022-08-18T00:12:13;13.40;;;11.43;;
60869;SDS011;46710;43.680;4.132;2022-08-18T00:14:39;12.37;;;10.32;;
60869;SDS011;46710;43.680;4.132;2022-08-18T00:17:06;13.68;;;10.98;;
60869;SDS011;46710;43.680;4.132;2022-08-18T00:19:32;17.15;;;10.90;;
60869;SDS011;46710;43.680;4.132;2022-08-18T00:21:58;15.45;;;11.30;;
60869;SDS011;46710;43.680;4.132;2022-08-18T00:24:24;13.80;;;11.07;;
60869;SDS011;46710;43.680;4.132;2022-08-18T00:26:50;12.70;;;10.95;;
60869;SDS011;46710;43.680;4.132;2022-08-18T00:29:18;11.98;;;10.32;;
60869;SDS011;46710;43.680;4.132;2022-08-18T00:31:44;11.95;;;10.50;;
60869;SDS011;46710;43.680;4.132;2022-08-18T00:34:11;11.02;;;9.85;;
60869;SDS011;46710;43.680;4.132;2022-08-18T00:36:37;14.93;;;10.00;;
60869;SDS011;46710;43.680;4.132;2022-08-18T00:39:03;12.73;;;10.75;;
60869;SDS011;46710;43.680;4.132;2022-08-18T00:41:30;13.93;;;10.00;;
60869;SDS011;46710;43.680;4.132;2022-08-18T00:43:56;11.07;;;9.75;;
60869;SDS011;46710;43.680;4.132;2022-08-18T00:46:27;10.10;;;9.05;;
60869;SDS011;46710;43.680;4.132;2022-08-18T00:48:54;12.20;;;9.90;;
60869;SDS011;46710;43.680;4.132;2022-08-18T00:53:51;12.23;;;9.70;;
60869;SDS011;46710;43.680;4.132;2022-08-18T00:56:20;11.57;;;9.68;;
60869;SDS011;46710;43.680;4.132;2022-08-18T00:58:52;10.93;;;9.55;;
60869;SDS011;46710;43.680;4.132;2022-08-18T01:01:21;11.40;;;9.60;;
60869;SDS011;46710;43.680;4.132;2022-08-18T01:03:48;11.63;;;9.65;;
60869;SDS011;46710;43.680;4.132;2022-08-18T01:06:36;13.13;;;9.07;;
60869;SDS011;46710;43.680;4.132;2022-08-18T01:09:03;11.18;;;9.10;;
60869;SDS011;46710;43.680;4.132;2022-08-18T01:11:29;12.55;;;9.38;;
60869;SDS011;46710;43.680;4.132;2022-08-18T01:13:56;11.00;;;8.88;;
60869;SDS011;46710;43.680;4.132;2022-08-18T01:16:22;10.23;;;8.68;;
60869;SDS011;46710;43.680;4.132;2022-08-18T01:19:08;13.05;;;9.20;;
60869;SDS011;46710;43.680;4.132;2022-08-18T01:21:57;10.88;;;9.00;;
60869;SDS011;46710;43.680;4.132;2022-08-18T01:24:28;11.85;;;9.65;;
60869;SDS011;46710;43.680;4.132;2022-08-18T01:27:14;10.77;;;8.88;;
60869;SDS011;46710;43.680;4.132;2022-08-18T01:29:43;10.60;;;8.70;;
60869;SDS011;46710;43.680;4.132;2022-08-18T01:32:10;11.32;;;9.13;;
60869;SDS011;46710;43.680;4.132;2022-08-18T01:34:36;10.82;;;8.95;;
60869;SDS011;46710;43.680;4.132;2022-08-18T01:37:03;10.57;;;9.23;;
60869;SDS011;46710;43.680;4.132;2022-08-18T01:39:30;10.38;;;9.07;;
60869;SDS011;46710;43.680;4.132;2022-08-18T01:41:56;12.65;;;9.23;;
60869;SDS011;46710;43.680;4.132;2022-08-18T01:44:22;16.67;;;9.80;;
60869;SDS011;46710;43.680;4.132;2022-08-18T01:46:49;11.82;;;9.13;;
60869;SDS011;46710;43.680;4.132;2022-08-18T01:49:17;10.63;;;8.63;;
60869;SDS011;46710;43.680;4.132;2022-08-18T01:51:43;12.82;;;9.30;;
60869;SDS011;46710;43.680;4.132;2022-08-18T01:54:11;11.43;;;9.35;;
60869;SDS011;46710;43.680;4.132;2022-08-18T01:56:37;13.07;;;9.57;;
60869;SDS011;46710;43.680;4.132;2022-08-18T01:59:04;11.05;;;9.05;;
60869;SDS011;46710;43.680;4.132;2022-08-18T02:01:36;11.20;;;9.30;;
60869;SDS011;46710;43.680;4.132;2022-08-18T02:04:03;11.68;;;8.82;;
60869;SDS011;46710;43.680;4.132;2022-08-18T02:06:33;10.55;;;8.95;;
60869;SDS011;46710;43.680;4.132;2022-08-18T02:09:00;12.40;;;9.30;;
60869;SDS011;46710;43.680;4.132;2022-08-18T02:11:26;11.02;;;8.70;;
60869;SDS011;46710;43.680;4.132;2022-08-18T02:13:52;10.20;;;9.10;;
60869;SDS011;46710;43.680;4.132;2022-08-18T02:16:18;8.88;;;7.97;;
60869;SDS011;46710;43.680;4.132;2022-08-18T02:18:44;9.85;;;8.45;;
60869;SDS011;46710;43.680;4.132;2022-08-18T02:21:11;9.40;;;8.40;;
60869;SDS011;46710;43.680;4.132;2022-08-18T02:23:39;11.90;;;9.63;;
60869;SDS011;46710;43.680;4.132;2022-08-18T02:26:06;9.80;;;8.70;;
60869;SDS011;46710;43.680;4.132;2022-08-18T02:28:32;10.52;;;8.40;;
60869;SDS011;46710;43.680;4.132;2022-08-18T02:31:09;10.68;;;8.18;;
60869;SDS011;46710;43.680;4.132;2022-08-18T02:33:36;9.75;;;8.73;;
60869;SDS011;46710;43.680;4.132;2022-08-18T02:36:02;10.27;;;8.63;;
60869;SDS011;46710;43.680;4.132;2022-08-18T02:38:28;9.85;;;8.57;;
60869;SDS011;46710;43.680;4.132;2022-08-18T02:40:58;11.30;;;9.13;;
60869;SDS011;46710;43.680;4.132;2022-08-18T02:43:25;10.15;;;8.48;;
60869;SDS011;46710;43.680;4.132;2022-08-18T02:45:51;10.73;;;8.63;;
60869;SDS011;46710;43.680;4.132;2022-08-18T02:48:17;9.23;;;8.25;;
60869;SDS011;46710;43.680;4.132;2022-08-18T02:51:09;9.95;;;8.50;;
60869;SDS011;46710;43.680;4.132;2022-08-18T02:53:36;10.70;;;8.68;;
60869;SDS011;46710;43.680;4.132;2022-08-18T02:56:05;13.40;;;8.55;;
60869;SDS011;46710;43.680;4.132;2022-08-18T02:58:53;9.95;;;8.43;;
60869;SDS011;46710;43.680;4.132;2022-08-18T03:01:24;11.50;;;9.18;;
60869;SDS011;46710;43.680;4.132;2022-08-18T03:03:51;10.93;;;8.30;;
60869;SDS011;46710;43.680;4.132;2022-08-18T03:06:18;9.38;;;8.48;;
60869;SDS011;46710;43.680;4.132;2022-08-18T03:08:44;9.90;;;8.65;;
60869;SDS011;46710;43.680;4.132;2022-08-18T03:11:18;11.75;;;8.65;;
60869;SDS011;46710;43.680;4.132;2022-08-18T03:13:46;11.07;;;8.63;;
60869;SDS011;46710;43.680;4.132;2022-08-18T03:16:12;9.73;;;8.35;;
60869;SDS011;46710;43.680;4.132;2022-08-18T03:18:40;11.52;;;9.10;;
60869;SDS011;46710;43.680;4.132;2022-08-18T03:21:11;9.77;;;8.77;;
60869;SDS011;46710;43.680;4.132;2022-08-18T03:23:38;10.60;;;9.10;;
60869;SDS011;46710;43.680;4.132;2022-08-18T03:26:05;10.60;;;8.55;;
60869;SDS011;46710;43.680;4.132;2022-08-18T03:28:33;11.10;;;9.18;;
60869;SDS011;46710;43.680;4.132;2022-08-18T03:30:59;9.93;;;8.93;;
60869;SDS011;46710;43.680;4.132;2022-08-18T03:33:25;10.85;;;8.82;;
60869;SDS011;46710;43.680;4.132;2022-08-18T03:35:51;10.98;;;8.93;;
60869;SDS011;46710;43.680;4.132;2022-08-18T03:38:17;11.65;;;9.23;;
60869;SDS011;46710;43.680;4.132;2022-08-18T03:40:49;11.12;;;9.10;;
60869;SDS011;46710;43.680;4.132;2022-08-18T03:43:16;9.73;;;8.60;;
60869;SDS011;46710;43.680;4.132;2022-08-18T03:45:42;10.98;;;8.95;;
60869;SDS011;46710;43.680;4.132;2022-08-18T03:48:08;11.93;;;9.55;;
60869;SDS011;46710;43.680;4.132;2022-08-18T03:50:35;10.70;;;9.20;;
60869;SDS011;46710;43.680;4.132;2022-08-18T03:53:02;10.73;;;9.15;;
60869;SDS011;46710;43.680;4.132;2022-08-18T03:55:29;14.10;;;9.30;;
60869;SDS011;46710;43.680;4.132;2022-08-18T03:57:59;10.00;;;9.00;;
60869;SDS011;46710;43.680;4.132;2022-08-18T04:00:27;9.80;;;8.80;;
60869;SDS011;46710;43.680;4.132;2022-08-18T04:02:54;12.70;;;9.02;;
60869;SDS011;46710;43.680;4.132;2022-08-18T04:05:20;12.37;;;9.48;;
60869;SDS011;46710;43.680;4.132;2022-08-18T04:07:46;11.27;;;9.30;;
60869;SDS011;46710;43.680;4.132;2022-08-18T04:10:12;11.02;;;9.40;;
60869;SDS011;46710;43.680;4.132;2022-08-18T04:12:39;10.65;;;8.55;;
60869;SDS011;46710;43.680;4.132;2022-08-18T04:15:07;11.95;;;9.25;;
60869;SDS011;46710;43.680;4.132;2022-08-18T04:17:33;11.40;;;9.07;;
60869;SDS011;46710;43.680;4.132;2022-08-18T04:19:59;12.25;;;9.07;;
60869;SDS011;46710;43.680;4.132;2022-08-18T04:22:26;12.32;;;9.40;;
60869;SDS011;46710;43.680;4.132;2022-08-18T04:24:52;10.63;;;9.45;;
60869;SDS011;46710;43.680;4.132;2022-08-18T04:27:19;12.50;;;9.48;;
60869;SDS011;46710;43.680;4.132;2022-08-18T04:29:46;10.40;;;9.07;;
60869;SDS011;46710;43.680;4.132;2022-08-18T04:32:13;10.32;;;9.00;;
60869;SDS011;46710;43.680;4.132;2022-08-18T04:34:39;12.13;;;9.38;;
60869;SDS011;46710;43.680;4.132;2022-08-18T04:37:07;10.07;;;9.07;;
60869;SDS011;46710;43.680;4.132;2022-08-18T04:39:33;14.90;;;10.02;;
60869;SDS011;46710;43.680;4.132;2022-08-18T04:41:59;11.27;;;9.55;;
60869;SDS011;46710;43.680;4.132;2022-08-18T04:44:29;11.15;;;9.45;;
60869;SDS011;46710;43.680;4.132;2022-08-18T04:46:55;11.32;;;9.48;;
60869;SDS011;46710;43.680;4.132;2022-08-18T04:49:22;14.18;;;9.80;;
60869;SDS011;46710;43.680;4.132;2022-08-18T04:51:50;11.52;;;9.00;;
60869;SDS011;46710;43.680;4.132;2022-08-18T04:54:36;12.45;;;9.90;;
60869;SDS011;46710;43.680;4.132;2022-08-18T04:57:10;11.12;;;8.93;;
60869;SDS011;46710;43.680;4.132;2022-08-18T04:59:37;12.77;;;9.73;;
60869;SDS011;46710;43.680;4.132;2022-08-18T05:02:04;11.15;;;9.55;;
60869;SDS011;46710;43.680;4.132;2022-08-18T05:04:32;12.18;;;9.63;;
60869;SDS011;46710;43.680;4.132;2022-08-18T05:06:59;10.32;;;9.27;;
60869;SDS011;46710;43.680;4.132;2022-08-18T05:09:25;10.73;;;9.30;;
60869;SDS011;46710;43.680;4.132;2022-08-18T05:11:51;11.52;;;10.02;;
60869;SDS011;46710;43.680;4.132;2022-08-18T05:14:17;13.25;;;9.60;;
60869;SDS011;46710;43.680;4.132;2022-08-18T05:16:44;11.82;;;9.95;;
60869;SDS011;46710;43.680;4.132;2022-08-18T05:19:10;10.82;;;9.43;;
60869;SDS011;46710;43.680;4.132;2022-08-18T05:21:37;12.65;;;9.95;;
60869;SDS011;46710;43.680;4.132;2022-08-18T05:24:06;17.48;;;10.05;;
60869;SDS011;46710;43.680;4.132;2022-08-18T05:26:32;12.32;;;9.95;;
60869;SDS011;46710;43.680;4.132;2022-08-18T05:28:59;12.25;;;10.07;;
60869;SDS011;46710;43.680;4.132;2022-08-18T05:31:26;13.05;;;10.43;;
60869;SDS011;46710;43.680;4.132;2022-08-18T05:33:52;12.18;;;9.75;;
60869;SDS011;46710;43.680;4.132;2022-08-18T05:44:17;12.90;;;10.15;;
60869;SDS011;46710;43.680;4.132;2022-08-18T05:46:48;11.75;;;10.43;;
60869;SDS011;46710;43.680;4.132;2022-08-18T05:49:16;12.52;;;9.82;;
60869;SDS011;46710;43.680;4.132;2022-08-18T05:51:51;13.90;;;10.40;;
60869;SDS011;46710;43.680;4.132;2022-08-18T05:54:18;11.77;;;9.88;;
60869;SDS011;46710;43.680;4.132;2022-08-18T05:57:07;12.90;;;9.90;;
60869;SDS011;46710;43.680;4.132;2022-08-18T05:59:36;12.93;;;10.43;;
60869;SDS011;46710;43.680;4.132;2022-08-18T06:04:42;13.48;;;10.48;;
60869;SDS011;46710;43.680;4.132;2022-08-18T06:07:11;13.52;;;10.57;;
60869;SDS011;46710;43.680;4.132;2022-08-18T06:09:39;11.35;;;9.95;;
60869;SDS011;46710;43.680;4.132;2022-08-18T06:12:54;13.25;;;11.05;;
60869;SDS011;46710;43.680;4.132;2022-08-18T06:14:58;11.88;;;10.13;;
60869;SDS011;46710;43.680;4.132;2022-08-18T06:22:25;11.70;;;10.50;;
60869;SDS011;46710;43.680;4.132;2022-08-18T06:25:02;14.37;;;10.67;;
60869;SDS011;46710;43.680;4.132;2022-08-18T06:32:42;14.20;;;10.40;;
60869;SDS011;46710;43.680;4.132;2022-08-18T06:40:46;39.35;;;33.30;;
60869;SDS011;46710;43.680;4.132;2022-08-18T06:43:13;23.55;;;20.60;;
60869;SDS011;46710;43.680;4.132;2022-08-18T06:45:42;18.65;;;14.98;;
60869;SDS011;46710;43.680;4.132;2022-08-18T06:48:16;16.08;;;12.00;;
60869;SDS011;46710;43.680;4.132;2022-08-18T06:50:51;14.10;;;11.00;;
60869;SDS011;46710;43.680;4.132;2022-08-18T06:53:18;11.85;;;10.55;;
60869;SDS011;46710;43.680;4.132;2022-08-18T06:55:45;14.38;;;11.02;;
60869;SDS011;46710;43.680;4.132;2022-08-18T07:00:41;12.43;;;10.38;;
60869;SDS011;46710;43.680;4.132;2022-08-18T07:05:37;13.75;;;10.77;;
60869;SDS011;46710;43.680;4.132;2022-08-18T07:10:38;16.23;;;10.82;;
60869;SDS011;46710;43.680;4.132;2022-08-18T07:13:21;13.43;;;11.48;;
60869;SDS011;46710;43.680;4.132;2022-08-18T07:15:49;12.68;;;11.27;;
60869;SDS011;46710;43.680;4.132;2022-08-18T07:18:20;11.75;;;10.50;;
60869;SDS011;46710;43.680;4.132;2022-08-18T07:20:48;11.38;;;9.93;;
60869;SDS011;46710;43.680;4.132;2022-08-18T07:26:15;12.48;;;10.95;;
60869;SDS011;46710;43.680;4.132;2022-08-18T07:28:40;11.32;;;9.95;;
60869;SDS011;46710;43.680;4.132;2022-08-18T07:33:37;11.20;;;9.85;;
60869;SDS011;46710;43.680;4.132;2022-08-18T07:36:05;12.10;;;10.65;;
60869;SDS011;46710;43.680;4.132;2022-08-18T07:44:10;14.18;;;10.40;;
60869;SDS011;46710;43.680;4.132;2022-08-18T07:46:29;13.20;;;11.18;;
60869;SDS011;46710;43.680;4.132;2022-08-18T07:48:57;14.30;;;10.70;;
60869;SDS011;46710;43.680;4.132;2022-08-18T07:54:04;13.48;;;10.95;;
60869;SDS011;46710;43.680;4.132;2022-08-18T08:06:56;23.42;;;19.00;;
60869;SDS011;46710;43.680;4.132;2022-08-18T08:12:22;21.50;;;17.95;;
60869;SDS011;46710;43.680;4.132;2022-08-18T08:14:55;20.37;;;15.82;;
60869;SDS011;46710;43.680;4.132;2022-08-18T08:17:28;17.12;;;15.15;;
60869;SDS011;46710;43.680;4.132;2022-08-18T08:20:08;15.88;;;14.00;;
60869;SDS011;46710;43.680;4.132;2022-08-18T08:25:07;14.20;;;11.65;;
60869;SDS011;46710;43.680;4.132;2022-08-18T08:30:14;14.25;;;10.68;;
60869;SDS011;46710;43.680;4.132;2022-08-18T08:36:41;14.65;;;12.20;;
60869;SDS011;46710;43.680;4.132;2022-08-18T08:43:54;13.93;;;10.82;;
60869;SDS011;46710;43.680;4.132;2022-08-18T08:46:21;21.95;;;19.37;;
60869;SDS011;46710;43.680;4.132;2022-08-18T08:49:00;18.27;;;16.23;;
60869;SDS011;46710;43.680;4.132;2022-08-18T08:56:37;10.07;;;9.07;;
60869;SDS011;46710;43.680;4.132;2022-08-18T08:59:06;9.52;;;8.52;;
60869;SDS011;46710;43.680;4.132;2022-08-18T09:01:48;9.18;;;8.15;;
60869;SDS011;46710;43.680;4.132;2022-08-18T09:06:58;10.30;;;9.20;;
60869;SDS011;46710;43.680;4.132;2022-08-18T09:24:54;9.70;;;8.07;;
60869;SDS011;46710;43.680;4.132;2022-08-18T09:33:03;11.55;;;9.10;;
60869;SDS011;46710;43.680;4.132;2022-08-18T09:35:45;11.02;;;9.30;;
60869;SDS011;46710;43.680;4.132;2022-08-18T09:38:18;12.57;;;10.45;;
60869;SDS011;46710;43.680;4.132;2022-08-18T09:41:08;15.13;;;10.02;;
60869;SDS011;46710;43.680;4.132;2022-08-18T09:44:05;13.18;;;9.45;;
60869;SDS011;46710;43.680;4.132;2022-08-18T09:51:50;11.05;;;9.07;;
60869;SDS011;46710;43.680;4.132;2022-08-18T09:54:23;17.73;;;10.02;;
60869;SDS011;46710;43.680;4.132;2022-08-18T10:04:34;11.30;;;9.68;;
60869;SDS011;46710;43.680;4.132;2022-08-18T10:09:44;13.13;;;9.80;;
60869;SDS011;46710;43.680;4.132;2022-08-18T10:12:17;13.43;;;9.55;;
60869;SDS011;46710;43.680;4.132;2022-08-18T10:17:21;12.37;;;9.73;;
60869;SDS011;46710;43.680;4.132;2022-08-18T10:22:38;9.93;;;8.88;;
60869;SDS011;46710;43.680;4.132;2022-08-18T10:25:07;10.43;;;9.05;;
60869;SDS011;46710;43.680;4.132;2022-08-18T10:30:02;11.85;;;9.57;;
60869;SDS011;46710;43.680;4.132;2022-08-18T10:32:35;10.63;;;9.25;;
60869;SDS011;46710;43.680;4.132;2022-08-18T10:35:02;11.10;;;9.00;;
60869;SDS011;46710;43.680;4.132;2022-08-18T10:40:00;11.52;;;8.77;;
60869;SDS011;46710;43.680;4.132;2022-08-18T10:44:59;10.07;;;8.60;;
60869;SDS011;46710;43.680;4.132;2022-08-18T10:47:26;9.77;;;8.50;;
60869;SDS011;46710;43.680;4.132;2022-08-18T10:49:53;9.82;;;8.23;;
60869;SDS011;46710;43.680;4.132;2022-08-18T11:00:11;11.60;;;8.85;;
60869;SDS011;46710;43.680;4.132;2022-08-18T11:05:09;13.20;;;8.90;;
60869;SDS011;46710;43.680;4.132;2022-08-18T11:07:35;10.07;;;8.82;;
60869;SDS011;46710;43.680;4.132;2022-08-18T11:10:17;9.65;;;8.65;;
60869;SDS011;46710;43.680;4.132;2022-08-18T11:20:17;10.88;;;8.88;;
60869;SDS011;46710;43.680;4.132;2022-08-18T11:22:54;13.07;;;8.85;;
60869;SDS011;46710;43.680;4.132;2022-08-18T11:25:26;10.07;;;8.35;;
60869;SDS011;46710;43.680;4.132;2022-08-18T11:27:53;11.77;;;9.13;;
60869;SDS011;46710;43.680;4.132;2022-08-18T11:30:20;10.50;;;9.13;;
60869;SDS011;46710;43.680;4.132;2022-08-18T11:32:48;9.75;;;8.75;;
60869;SDS011;46710;43.680;4.132;2022-08-18T11:35:16;10.65;;;9.25;;
60869;SDS011;46710;43.680;4.132;2022-08-18T11:37:44;12.37;;;9.70;;
60869;SDS011;46710;43.680;4.132;2022-08-18T11:42:37;10.27;;;9.05;;
60869;SDS011;46710;43.680;4.132;2022-08-18T11:45:10;9.82;;;8.82;;
60869;SDS011;46710;43.680;4.132;2022-08-18T11:47:46;10.73;;;8.90;;
60869;SDS011;46710;43.680;4.132;2022-08-18T11:50:30;12.02;;;9.32;;
60869;SDS011;46710;43.680;4.132;2022-08-18T11:53:09;10.35;;;9.25;;
60869;SDS011;46710;43.680;4.132;2022-08-18T11:55:37;12.10;;;9.50;;
60869;SDS011;46710;43.680;4.132;2022-08-18T11:58:03;11.07;;;8.95;;
60869;SDS011;46710;43.680;4.132;2022-08-18T12:03:25;10.07;;;9.07;;
60869;SDS011;46710;43.680;4.132;2022-08-18T12:05:50;11.27;;;8.80;;
60869;SDS011;46710;43.680;4.132;2022-08-18T12:08:29;9.32;;;8.38;;
60869;SDS011;46710;43.680;4.132;2022-08-18T12:11:02;9.82;;;8.82;;
60869;SDS011;46710;43.680;4.132;2022-08-18T12:13:28;9.55;;;8.65;;
60869;SDS011;46710;43.680;4.132;2022-08-18T12:16:12;10.48;;;9.38;;
60869;SDS011;46710;43.680;4.132;2022-08-18T12:18:39;10.60;;;9.10;;
60869;SDS011;46710;43.680;4.132;2022-08-18T12:21:05;10.70;;;9.55;;
60869;SDS011;46710;43.680;4.132;2022-08-18T12:23:32;12.73;;;11.07;;
60869;SDS011;46710;43.680;4.132;2022-08-18T12:25:58;13.05;;;10.90;;
60869;SDS011;46710;43.680;4.132;2022-08-18T12:28:25;11.70;;;9.50;;
60869;SDS011;46710;43.680;4.132;2022-08-18T12:30:51;10.90;;;9.32;;
60869;SDS011;46710;43.680;4.132;2022-08-18T12:33:18;9.85;;;8.77;;
60869;SDS011;46710;43.680;4.132;2022-08-18T12:35:44;10.68;;;8.88;;
60869;SDS011;46710;43.680;4.132;2022-08-18T12:38:11;10.43;;;8.23;;
60869;SDS011;46710;43.680;4.132;2022-08-18T12:40:37;9.93;;;8.68;;
60869;SDS011;46710;43.680;4.132;2022-08-18T12:43:03;9.75;;;8.65;;
60869;SDS011;46710;43.680;4.132;2022-08-18T12:45:30;9.73;;;8.65;;
60869;SDS011;46710;43.680;4.132;2022-08-18T12:47:56;13.18;;;8.50;;
60869;SDS011;46710;43.680;4.132;2022-08-18T12:50:23;8.90;;;8.05;;
60869;SDS011;46710;43.680;4.132;2022-08-18T12:52:49;11.23;;;8.93;;
60869;SDS011;46710;43.680;4.132;2022-08-18T12:55:15;9.43;;;8.43;;
60869;SDS011;46710;43.680;4.132;2022-08-18T12:57:43;12.85;;;8.35;;
60869;SDS011;46710;43.680;4.132;2022-08-18T13:00:09;8.30;;;7.50;;
60869;SDS011;46710;43.680;4.132;2022-08-18T13:02:36;8.23;;;7.45;;
60869;SDS011;46710;43.680;4.132;2022-08-18T13:05:02;8.57;;;7.28;;
60869;SDS011;46710;43.680;4.132;2022-08-18T13:07:28;9.73;;;7.47;;
60869;SDS011;46710;43.680;4.132;2022-08-18T13:09:55;8.13;;;7.30;;
60869;SDS011;46710;43.680;4.132;2022-08-18T13:12:21;7.05;;;6.37;;
60869;SDS011;46710;43.680;4.132;2022-08-18T13:14:50;7.68;;;6.97;;
60869;SDS011;46710;43.680;4.132;2022-08-18T13:17:19;8.70;;;7.12;;
60869;SDS011;46710;43.680;4.132;2022-08-18T13:19:45;7.70;;;6.93;;
60869;SDS011;46710;43.680;4.132;2022-08-18T13:22:12;7.45;;;6.43;;
60869;SDS011;46710;43.680;4.132;2022-08-18T13:24:38;8.65;;;6.75;;
60869;SDS011;46710;43.680;4.132;2022-08-18T13:27:04;7.82;;;7.12;;
60869;SDS011;46710;43.680;4.132;2022-08-18T13:29:30;8.13;;;6.95;;
60869;SDS011;46710;43.680;4.132;2022-08-18T13:31:57;7.72;;;7.03;;
60869;SDS011;46710;43.680;4.132;2022-08-18T13:34:26;8.00;;;7.30;;
60869;SDS011;46710;43.680;4.132;2022-08-18T13:36:52;8.63;;;7.72;;
60869;SDS011;46710;43.680;4.132;2022-08-18T13:39:20;7.75;;;7.00;;
60869;SDS011;46710;43.680;4.132;2022-08-18T13:41:47;8.20;;;7.35;;
60869;SDS011;46710;43.680;4.132;2022-08-18T13:44:14;8.70;;;6.72;;
60869;SDS011;46710;43.680;4.132;2022-08-18T13:46:42;7.18;;;6.50;;
60869;SDS011;46710;43.680;4.132;2022-08-18T13:49:14;7.55;;;6.37;;
60869;SDS011;46710;43.680;4.132;2022-08-18T13:51:43;11.35;;;7.22;;
60869;SDS011;46710;43.680;4.132;2022-08-18T13:54:22;8.50;;;6.90;;
60869;SDS011;46710;43.680;4.132;2022-08-18T13:56:49;9.38;;;6.87;;
60869;SDS011;46710;43.680;4.132;2022-08-18T13:59:15;7.03;;;6.40;;
60869;SDS011;46710;43.680;4.132;2022-08-18T14:01:42;7.62;;;6.87;;
60869;SDS011;46710;43.680;4.132;2022-08-18T14:04:09;7.25;;;6.55;;
60869;SDS011;46710;43.680;4.132;2022-08-18T14:06:36;6.80;;;6.20;;
60869;SDS011;46710;43.680;4.132;2022-08-18T14:09:03;8.75;;;6.65;;
60869;SDS011;46710;43.680;4.132;2022-08-18T14:11:29;7.32;;;6.65;;
60869;SDS011;46710;43.680;4.132;2022-08-18T14:13:57;6.43;;;5.85;;
60869;SDS011;46710;43.680;4.132;2022-08-18T14:16:23;7.18;;;6.57;;
60869;SDS011;46710;43.680;4.132;2022-08-18T14:18:49;7.00;;;6.40;;
60869;SDS011;46710;43.680;4.132;2022-08-18T14:21:35;7.72;;;6.70;;
60869;SDS011;46710;43.680;4.132;2022-08-18T14:24:21;7.20;;;6.50;;
60869;SDS011;46710;43.680;4.132;2022-08-18T14:27:06;7.43;;;6.72;;
60869;SDS011;46710;43.680;4.132;2022-08-18T14:29:32;7.97;;;6.62;;
60869;SDS011;46710;43.680;4.132;2022-08-18T14:31:58;7.00;;;6.40;;
60869;SDS011;46710;43.680;4.132;2022-08-18T14:34:24;7.80;;;7.10;;
60869;SDS011;46710;43.680;4.132;2022-08-18T14:36:50;7.03;;;6.43;;
60869;SDS011;46710;43.680;4.132;2022-08-18T14:39:16;7.22;;;6.53;;
60869;SDS011;46710;43.680;4.132;2022-08-18T14:41:42;6.90;;;6.28;;
60869;SDS011;46710;43.680;4.132;2022-08-18T14:44:09;7.22;;;6.53;;
60869;SDS011;46710;43.680;4.132;2022-08-18T14:46:37;6.97;;;6.37;;
60869;SDS011;46710;43.680;4.132;2022-08-18T14:49:03;7.28;;;6.57;;
60869;SDS011;46710;43.680;4.132;2022-08-18T14:51:30;7.50;;;6.80;;
60869;SDS011;46710;43.680;4.132;2022-08-18T14:53:57;7.80;;;6.65;;
60869;SDS011;46710;43.680;4.132;2022-08-18T14:56:23;7.40;;;6.72;;
60869;SDS011;46710;43.680;4.132;2022-08-18T14:58:49;7.43;;;6.72;;
60869;SDS011;46710;43.680;4.132;2022-08-18T15:01:16;7.90;;;7.10;;
60869;SDS011;46710;43.680;4.132;2022-08-18T15:03:42;7.20;;;6.62;;
60869;SDS011;46710;43.680;4.132;2022-08-18T15:06:08;7.22;;;6.55;;
60869;SDS011;46710;43.680;4.132;2022-08-18T15:08:35;7.30;;;6.62;;
60869;SDS011;46710;43.680;4.132;2022-08-18T15:11:02;7.95;;;6.85;;
60869;SDS011;46710;43.680;4.132;2022-08-18T15:13:30;7.90;;;7.20;;
60869;SDS011;46710;43.680;4.132;2022-08-18T15:15:57;7.82;;;6.82;;
60869;SDS011;46710;43.680;4.132;2022-08-18T15:18:24;8.13;;;7.00;;
60869;SDS011;46710;43.680;4.132;2022-08-18T15:20:50;7.93;;;6.80;;
60869;SDS011;46710;43.680;4.132;2022-08-18T15:23:35;7.20;;;6.60;;
60869;SDS011;46710;43.680;4.132;2022-08-18T15:26:21;7.85;;;6.75;;
60869;SDS011;46710;43.680;4.132;2022-08-18T15:28:48;7.95;;;6.97;;
60869;SDS011;46710;43.680;4.132;2022-08-18T15:31:14;7.65;;;6.95;;
60869;SDS011;46710;43.680;4.132;2022-08-18T15:33:40;7.60;;;6.80;;
60869;SDS011;46710;43.680;4.132;2022-08-18T15:36:06;7.90;;;7.10;;
60869;SDS011;46710;43.680;4.132;2022-08-18T15:38:33;8.10;;;7.30;;
60869;SDS011;46710;43.680;4.132;2022-08-18T15:40:59;7.60;;;6.90;;
60869;SDS011;46710;43.680;4.132;2022-08-18T15:43:27;8.15;;;7.30;;
60869;SDS011;46710;43.680;4.132;2022-08-18T15:45:55;8.05;;;6.93;;
60869;SDS011;46710;43.680;4.132;2022-08-18T15:48:22;8.10;;;7.12;;
60869;SDS011;46710;43.680;4.132;2022-08-18T15:50:48;8.15;;;7.35;;
60869;SDS011;46710;43.680;4.132;2022-08-18T15:53:16;7.37;;;6.78;;
60869;SDS011;46710;43.680;4.132;2022-08-18T15:55:42;7.70;;;6.90;;
60869;SDS011;46710;43.680;4.132;2022-08-18T15:58:09;10.70;;;9.60;;
60869;SDS011;46710;43.680;4.132;2022-08-18T16:00:36;15.52;;;14.02;;
60869;SDS011;46710;43.680;4.132;2022-08-18T16:03:04;17.30;;;15.70;;
60869;SDS011;46710;43.680;4.132;2022-08-18T16:05:32;19.23;;;16.98;;
60869;SDS011;46710;43.680;4.132;2022-08-18T16:07:59;17.08;;;15.40;;
60869;SDS011;46710;43.680;4.132;2022-08-18T16:10:27;14.63;;;13.23;;
60869;SDS011;46710;43.680;4.132;2022-08-18T16:12:56;14.20;;;12.80;;
60869;SDS011;46710;43.680;4.132;2022-08-18T16:15:23;13.20;;;11.90;;
60869;SDS011;46710;43.680;4.132;2022-08-18T16:17:50;12.68;;;11.38;;
60869;SDS011;46710;43.680;4.132;2022-08-18T16:20:17;11.60;;;10.50;;
60869;SDS011;46710;43.680;4.132;2022-08-18T16:22:43;10.68;;;9.57;;
60869;SDS011;46710;43.680;4.132;2022-08-18T16:25:10;10.95;;;9.63;;
60869;SDS011;46710;43.680;4.132;2022-08-18T16:27:36;11.35;;;9.35;;
60869;SDS011;46710;43.680;4.132;2022-08-18T16:30:05;12.32;;;9.45;;
60869;SDS011;46710;43.680;4.132;2022-08-18T16:32:32;10.60;;;9.20;;
60869;SDS011;46710;43.680;4.132;2022-08-18T16:34:58;10.70;;;9.13;;
60869;SDS011;46710;43.680;4.132;2022-08-18T16:37:24;10.52;;;9.35;;
60869;SDS011;46710;43.680;4.132;2022-08-18T16:39:51;10.68;;;9.52;;
60869;SDS011;46710;43.680;4.132;2022-08-18T16:42:17;10.40;;;8.85;;
60869;SDS011;46710;43.680;4.132;2022-08-18T16:44:43;9.20;;;8.32;;
60869;SDS011;46710;43.680;4.132;2022-08-18T16:47:10;10.48;;;9.45;;
60869;SDS011;46710;43.680;4.132;2022-08-18T16:49:38;10.25;;;9.25;;
60869;SDS011;46710;43.680;4.132;2022-08-18T16:52:04;10.25;;;9.20;;
60869;SDS011;46710;43.680;4.132;2022-08-18T16:54:32;8.70;;;7.80;;
60869;SDS011;46710;43.680;4.132;2022-08-18T16:56:58;8.98;;;7.45;;
60869;SDS011;46710;43.680;4.132;2022-08-18T16:59:24;8.75;;;6.75;;
60869;SDS011;46710;43.680;4.132;2022-08-18T17:02:09;9.52;;;5.87;;
60869;SDS011;46710;43.680;4.132;2022-08-18T17:04:54;7.90;;;5.68;;
60869;SDS011;46710;43.680;4.132;2022-08-18T17:07:26;7.18;;;5.30;;
60869;SDS011;46710;43.680;4.132;2022-08-18T17:09:52;5.57;;;5.05;;
60869;SDS011;46710;43.680;4.132;2022-08-18T17:12:18;4.90;;;4.30;;
60869;SDS011;46710;43.680;4.132;2022-08-18T17:14:44;4.53;;;4.12;;
60869;SDS011;46710;43.680;4.132;2022-08-18T17:17:12;4.50;;;3.28;;
60869;SDS011;46710;43.680;4.132;2022-08-18T17:19:41;3.95;;;3.42;;
60869;SDS011;46710;43.680;4.132;2022-08-18T17:22:07;3.35;;;3.05;;
60869;SDS011;46710;43.680;4.132;2022-08-18T17:24:33;4.10;;;3.05;;